Map

Track Data

SID SEASON NUMBER BASIN SUBBASIN NAME ISO_TIME NATURE LAT LON WMO_WIND WMO_PRES WMO_AGENCY TRACK_TYPE DIST2LAND LANDFALL IFLAG USA_AGENCY USA_ATCF_ID USA_LAT USA_LON USA_RECORD USA_STATUS USA_WIND USA_PRES USA_SSHS USA_R34_NE USA_R34_SE USA_R34_SW USA_R34_NW USA_R50_NE USA_R50_SE USA_R50_SW USA_R50_NW USA_R64_NE USA_R64_SE USA_R64_SW USA_R64_NW USA_POCI USA_ROCI USA_RMW USA_EYE TOKYO_LAT TOKYO_LON TOKYO_GRADE TOKYO_WIND TOKYO_PRES TOKYO_R50_DIR TOKYO_R50_LONG TOKYO_R50_SHORT TOKYO_R30_DIR TOKYO_R30_LONG TOKYO_R30_SHORT TOKYO_LAND CMA_LAT CMA_LON CMA_CAT CMA_WIND CMA_PRES HKO_LAT HKO_LON HKO_CAT HKO_WIND HKO_PRES NEWDELHI_LAT NEWDELHI_LON NEWDELHI_GRADE NEWDELHI_WIND NEWDELHI_PRES NEWDELHI_CI NEWDELHI_DP NEWDELHI_POCI REUNION_LAT REUNION_LON REUNION_TYPE REUNION_WIND REUNION_PRES REUNION_TNUM REUNION_CI REUNION_RMW REUNION_R34_NE REUNION_R34_SE REUNION_R34_SW REUNION_R34_NW REUNION_R50_NE REUNION_R50_SE REUNION_R50_SW REUNION_R50_NW REUNION_R64_NE REUNION_R64_SE REUNION_R64_SW REUNION_R64_NW BOM_LAT BOM_LON BOM_TYPE BOM_WIND BOM_PRES BOM_TNUM BOM_CI BOM_RMW BOM_R34_NE BOM_R34_SE BOM_R34_SW BOM_R34_NW BOM_R50_NE BOM_R50_SE BOM_R50_SW BOM_R50_NW BOM_R64_NE BOM_R64_SE BOM_R64_SW BOM_R64_NW BOM_ROCI BOM_POCI BOM_EYE BOM_POS_METHOD BOM_PRES_METHOD NADI_LAT NADI_LON NADI_CAT NADI_WIND NADI_PRES WELLINGTON_LAT WELLINGTON_LON WELLINGTON_WIND WELLINGTON_PRES DS824_LAT DS824_LON DS824_STAGE DS824_WIND DS824_PRES TD9636_LAT TD9636_LON TD9636_STAGE TD9636_WIND TD9636_PRES TD9635_LAT TD9635_LON TD9635_WIND TD9635_PRES TD9635_ROCI NEUMANN_LAT NEUMANN_LON NEUMANN_CLASS NEUMANN_WIND NEUMANN_PRES MLC_LAT MLC_LON MLC_CLASS MLC_WIND MLC_PRES USA_GUST BOM_GUST BOM_GUST_PER REUNION_GUST REUNION_GUST_PER USA_SEAHGT USA_SEARAD_NE USA_SEARAD_SE USA_SEARAD_SW USA_SEARAD_NW STORM_SPEED STORM_DIR
1993229N10159 1993 55 WP MM VERNON 1993-08-17 00:00:00 NR 10.1000 158.600 main 1665 1665 O_____________ jtwc_wp WP171993 10.1000 158.600 20 -1 5 2
1993229N10159 1993 55 WP MM VERNON 1993-08-17 03:00:00 NR 10.3500 158.608 main 1695 1695 P_____________ WP171993 10.3500 158.608 20 -1 5 2
1993229N10159 1993 55 WP MM VERNON 1993-08-17 06:00:00 NR 10.6000 158.600 main 1714 1714 O_____________ jtwc_wp WP171993 10.6000 158.600 20 -1 5 355
1993229N10159 1993 55 WP MM VERNON 1993-08-17 09:00:00 NR 10.8500 158.565 main 1744 1734 P_____________ WP171993 10.8500 158.565 20 -1 5 349
1993229N10159 1993 55 WP MM VERNON 1993-08-17 12:00:00 NR 11.1000 158.500 main 1759 1759 O_____________ jtwc_wp WP171993 11.1000 158.500 20 -1 5 343
1993229N10159 1993 55 WP MM VERNON 1993-08-17 15:00:00 NR 11.3575 158.415 main 1784 1784 P_____________ WP171993 11.3575 158.415 20 -1 5 338
1993229N10159 1993 55 WP MM VERNON 1993-08-17 18:00:00 NR 11.6000 158.300 main 1799 1799 O_____________ jtwc_wp WP171993 11.6000 158.300 20 -1 5 331
1993229N10159 1993 55 WP MM VERNON 1993-08-17 21:00:00 NR 11.8075 158.157 main 1814 1809 P_____________ WP171993 11.8075 158.157 20 -1 5 324
1993229N10159 1993 55 WP MM VERNON 1993-08-18 00:00:00 NR 12.0000 158.000 main 1824 1824 O_____________ jtwc_wp WP171993 12.0000 158.000 20 -1 5 323
1993229N10159 1993 55 WP MM VERNON 1993-08-18 03:00:00 NR 12.2000 157.850 main 1835 1835 P_____________ WP171993 12.2000 157.850 20 -1 5 324
1993229N10159 1993 55 WP MM VERNON 1993-08-18 06:00:00 NR 12.4000 157.700 main 1851 1851 O_____________ jtwc_wp WP171993 12.4000 157.700 20 -1 5 325
1993229N10159 1993 55 WP MM VERNON 1993-08-18 09:00:00 NR 12.6075 157.557 main 1867 1863 P_____________ WP171993 12.6075 157.557 20 -1 5 324
1993229N10159 1993 55 WP MM VERNON 1993-08-18 12:00:00 NR 12.8000 157.400 main 1879 1875 O_____________ jtwc_wp WP171993 12.8000 157.400 20 -1 5 316
1993229N10159 1993 55 WP MM VERNON 1993-08-18 15:00:00 NR 12.9575 157.207 main 1891 1887 P_____________ WP171993 12.9575 157.207 20 -1 5 308
1993229N10159 1993 55 WP MM VERNON 1993-08-18 18:00:00 NR 13.1000 157.000 main 1894 1890 O_____________ jtwc_wp WP171993 13.1000 157.000 20 -1 5 306
1993229N10159 1993 55 WP MM VERNON 1993-08-18 21:00:00 NR 13.2500 156.800 main 1896 1896 P_____________ WP171993 13.2500 156.800 20 -1 5 308
1993229N10159 1993 55 WP MM VERNON 1993-08-19 00:00:00 NR 13.4000 156.600 main 1910 1906 O_____________ jtwc_wp WP171993 13.4000 156.600 20 -1 5 308
1993229N10159 1993 55 WP MM VERNON 1993-08-19 03:00:00 NR 13.5500 156.400 main 1913 1913 P_____________ WP171993 13.5500 156.400 20 -1 5 308
1993229N10159 1993 55 WP MM VERNON 1993-08-19 06:00:00 NR 13.7000 156.200 main 1928 1924 O_____________ jtwc_wp WP171993 13.7000 156.200 20 -1 5 309
1993229N10159 1993 55 WP MM VERNON 1993-08-19 09:00:00 NR 13.8575 156.007 main 1943 1939 P_____________ WP171993 13.8575 156.007 20 -1 5 308
1993229N10159 1993 55 WP MM VERNON 1993-08-19 12:00:00 NR 14.0000 155.800 main 1947 1944 O_____________ jtwc_wp WP171993 14.0000 155.800 20 -1 5 300
1993229N10159 1993 55 WP MM VERNON 1993-08-19 15:00:00 NR 14.1075 155.557 main 1952 1946 P_____________ WP171993 14.1075 155.557 20 -1 5 292
1993229N10159 1993 55 WP MM VERNON 1993-08-19 18:00:00 NR 14.2000 155.300 main 1954 1951 O_____________ jtwc_wp WP171993 14.2000 155.300 20 -1 5 292
1993229N10159 1993 55 WP MM VERNON 1993-08-19 21:00:00 NR 14.3074 155.058 main 1960 1957 P_____________ WP171993 14.3074 155.058 20 -1 5 292
1993229N10159 1993 55 WP MM VERNON 1993-08-20 00:00:00 NR 14.4000 154.800 main 1963 1958 O_____________ jtwc_wp WP171993 14.4000 154.800 20 -1 5 286
1993229N10159 1993 55 WP MM VERNON 1993-08-20 03:00:00 NR 14.4575 154.515 main 1967 1960 P_____________ WP171993 14.4575 154.515 20 -1 6 280
1993229N10159 1993 55 WP MM VERNON 1993-08-20 06:00:00 NR 14.5000 154.200 main 1960 1955 O_____________ jtwc_wp WP171993 14.5000 154.200 20 -1 6 276
1993229N10159 1993 55 WP MM VERNON 1993-08-20 09:00:00 NR 14.5274 153.865 main 1955 1951 P_____________ WP171993 14.5274 153.865 20 -1 7 278
1993229N10159 1993 55 WP MM VERNON 1993-08-20 12:00:00 NR 14.6000 153.500 main 1959 1956 O_____________ jtwc_wp WP171993 14.6000 153.500 20 -1 8 286
1993229N10159 1993 55 WP MM VERNON 1993-08-20 15:00:00 NR 14.7401 153.085 main 1964 1964 P_____________ WP171993 14.7401 153.085 20 -1 9 297
1993229N10159 1993 55 WP MM VERNON 1993-08-20 18:00:00 NR 15.0000 152.700 main 1992 1992 O_____________ jtwc_wp WP171993 15.0000 152.700 20 -1 10 314
1993229N10159 1993 55 WP MM VERNON 1993-08-20 21:00:00 NR 15.4050 152.375 main 2034 2034 P_____________ WP171993 15.4050 152.375 20 -1 10 332
1993229N10159 1993 55 WP MM VERNON 1993-08-21 00:00:00 NR 15.9000 152.200 main 2084 2084 O_____________ jtwc_wp WP171993 15.9000 152.200 20 -1 10 352
1993229N10159 1993 55 WP MM VERNON 1993-08-21 03:00:00 NR 16.3999 152.225 main 2138 2138 P_____________ WP171993 16.3999 152.225 22 -1 12 22
1993229N10159 1993 55 WP MM VERNON 1993-08-21 06:00:00 NR 17.0200 152.680 main 2215 2215 O__O__________ jtwc_wp WP171993 16.9000 152.400 25 -1 17.5000 153.800 TD 25 1005 13 30
1993229N10159 1993 55 WP MM VERNON 1993-08-21 09:00:00 NR 17.5393 152.902 main 2273 2273 P__P__________ WP171993 17.3576 152.635 25 -1 17.9027 153.435 TD 27 1002 12 21
1993229N10159 1993 55 WP MM VERNON 1993-08-21 12:00:00 TS 18.1444 153.122 1006 tokyo main 2283 2250 OOOO__________ jtwc_wp WP171993 17.8000 152.900 25 -1 18.6000 153.600 2 1006 0 0 0 18.6000 153.600 1 29 1005 18.3000 153.100 TD 30 1000 10 13
1993229N10159 1993 55 WP MM VERNON 1993-08-21 15:00:00 TS 18.5450 153.153 main 2250 2216 PPPP__________ WP171993 18.2425 153.137 27 -1 18.7000 153.503 2 1005 0 0 18.7000 153.503 1 29 1003 18.6924 152.820 TD 30 1000 7 0
1993229N10159 1993 55 WP MM VERNON 1993-08-21 18:00:00 TS 18.8571 153.143 1004 tokyo main 2207 2188 OOOO__________ jtwc_wp WP171993 18.7000 153.300 30 -1 18.8000 153.400 2 1004 0 0 0 18.8000 153.400 1 29 1002 19.1000 152.600 TD 30 1000 6 353
1993229N10159 1993 55 WP MM VERNON 1993-08-21 21:00:00 TS 19.1525 153.082 main 2178 2154 PPPP__________ WP171993 19.2224 153.360 32 -1 18.9000 153.292 2 1003 0 0 18.9000 153.292 1 29 1001 19.5875 152.383 TD 32 997 6 346
1993229N10159 1993 55 WP MM VERNON 1993-08-22 00:00:00 TS 19.4250 153.000 1002 tokyo main 2154 2135 OOOO__________ jtwc_wp WP171993 19.7000 153.300 35 0 19.0000 153.200 2 1002 0 0 0 19.0000 153.200 1 29 1000 20.0000 152.300 TS 35 995 5 348
1993229N10159 1993 55 WP MM VERNON 1993-08-22 03:00:00 TS 19.6157 152.981 main 2135 2125 PPPP__________ WP171993 20.0525 153.130 35 0 19.0850 153.150 2 1000 0 0 19.0850 153.150 1 33 999 20.2401 152.492 TS 35 995 3 355
1993229N10159 1993 55 WP MM VERNON 1993-08-22 06:00:00 TS 19.7500 152.950 35 998 tokyo main 2116 2101 OOOO__________ jtwc_wp WP171993 20.3000 152.900 35 0 19.2000 153.100 3 35 998 0 9 100 100 0 19.2000 153.100 2 38 998 20.3000 152.700 TS 35 995 3 333
1993229N10159 1993 55 WP MM VERNON 1993-08-22 09:00:00 TS 19.8556 152.851 main 2101 2090 PPPP__________ WP171993 20.4799 152.707 37 0 19.3850 153.015 3 35 997 0 9 110 110 19.3850 153.015 2 38 996 20.1724 152.667 TS 35 995 3 310
1993229N10159 1993 55 WP MM VERNON 1993-08-22 12:00:00 TS 19.9500 152.700 35 996 tokyo main 2080 2069 OOOO__________ jtwc_wp WP171993 20.6000 152.500 40 0 19.6000 152.900 3 35 996 0 9 120 120 0 19.6000 152.900 2 38 995 20.0000 152.500 TS 35 995 4 301
1993229N10159 1993 55 WP MM VERNON 1993-08-22 15:00:00 TS 20.0469 152.517 main 2069 2039 PPPP__________ WP171993 20.7000 152.250 40 0 19.7849 152.780 3 37 995 0 9 120 120 19.7850 152.772 2 38 995 19.9176 152.265 TS 37 995 5 304
1993229N10159 1993 55 WP MM VERNON 1993-08-22 18:00:00 TS 20.2000 152.300 40 994 tokyo main 2039 2009 OOOO__________ jtwc_wp WP171993 20.8000 152.000 40 0 20.0000 152.600 3 40 994 0 9 120 120 0 20.0000 152.600 2 38 995 20.0000 152.000 TS 40 995 6 314
1993229N10159 1993 55 WP MM VERNON 1993-08-22 21:00:00 TS 20.4537 152.072 main 1999 1954 PPPP__________ WP171993 20.9349 151.807 42 0 20.2701 152.315 3 40 994 0 9 125 125 20.2700 152.372 2 38 995 20.3400 151.793 TS 40 995 7 322
1993229N10159 1993 55 WP MM VERNON 1993-08-23 00:00:00 TS 20.7750 151.825 40 994 tokyo main 1954 1915 OOOO__________ jtwc_wp WP171993 21.1000 151.600 45 0 20.6000 152.000 3 40 994 0 9 130 130 0 20.6000 152.100 2 38 995 20.8000 151.600 TS 40 995 8 324
1993229N10159 1993 55 WP MM VERNON 1993-08-23 03:00:00 TS 21.1024 151.575 main 1915 1860 PPPP__________ WP171993 21.2701 151.307 47 0 20.9698 151.765 3 42 992 0 9 140 140 20.9699 151.822 2 38 992 21.1999 151.407 TS 42 992 9 325
1993229N10159 1993 55 WP MM VERNON 1993-08-23 06:00:00 TS 21.4750 151.300 45 990 tokyo main 1860 1806 OOOO__________ jtwc_wp WP171993 21.5000 151.000 50 0 21.4000 151.500 3 45 990 0 9 150 150 0 21.4000 151.500 2 38 990 21.6000 151.200 TS 45 990 10 326
1993229N10159 1993 55 WP MM VERNON 1993-08-23 09:00:00 TS 21.9200 150.990 main 1806 1752 PPPP__________ WP171993 21.8349 150.743 52 0 21.9150 151.123 3 47 987 0 9 165 165 21.9150 151.115 2 43 987 22.0149 150.980 TS 47 987 11 325
1993229N10159 1993 55 WP MM VERNON 1993-08-23 12:00:00 TS 22.3500 150.650 50 985 tokyo main 1742 1692 OOOO__________ jtwc_wp WP171993 22.2000 150.500 55 0 22.4000 150.700 4 50 985 9 9 180 180 0 22.4000 150.700 3 48 985 22.4000 150.700 STS 50 985 10 319
1993229N10159 1993 55 WP MM VERNON 1993-08-23 15:00:00 TS 22.6706 150.287 main 1692 1651 PPPP__________ WP171993 22.4999 150.257 57 0 22.7300 150.285 4 50 985 9 9 180 180 22.7300 150.285 3 48 985 22.7225 150.322 STS 50 985 9 312
1993229N10159 1993 55 WP MM VERNON 1993-08-23 18:00:00 TS 22.9500 149.925 50 985 tokyo main 1642 1607 OOOO__________ jtwc_wp WP171993 22.8000 150.000 60 0 23.0000 149.900 4 50 985 9 9 180 180 0 23.0000 149.900 3 48 985 23.0000 149.900 STS 50 985 9 311
1993229N10159 1993 55 WP MM VERNON 1993-08-23 21:00:00 TS 23.2331 149.577 main 1607 1562 PPPP__________ WP171993 23.1350 149.707 62 0 23.2849 149.577 4 52 982 9 9 180 180 23.2849 149.570 3 53 982 23.2276 149.455 STS 52 982 8 315
1993229N10159 1993 55 WP MM VERNON 1993-08-24 00:00:00 TS 23.5500 149.275 55 980 tokyo main 1553 1513 OOOO__________ jtwc_wp WP171993 23.5000 149.400 65 1 23.6000 149.300 4 55 980 9 40 40 9 180 180 0 23.6000 149.300 3 58 980 23.5000 149.100 STS 55 980 9 326
1993229N10159 1993 55 WP MM VERNON 1993-08-24 03:00:00 TS 23.9492 149.055 main 1513 1455 PPPP__________ WP171993 23.8850 149.092 67 1 23.9924 149.050 4 55 980 9 40 40 9 190 190 23.9923 149.107 3 58 980 23.9273 148.970 STS 55 980 9 335
1993229N10159 1993 55 WP MM VERNON 1993-08-24 06:00:00 TS 24.3750 148.850 55 980 tokyo main 1455 1411 OOOO__________ jtwc_wp WP171993 24.3000 148.800 70 1 24.4000 148.800 4 55 980 9 40 40 9 200 200 0 24.4000 148.900 3 58 980 24.4000 148.900 STS 55 980 9 333
1993229N10159 1993 55 WP MM VERNON 1993-08-24 09:00:00 TS 24.7624 148.601 main 1401 1357 PPPP__________ WP171993 24.7423 148.565 72 1 24.7499 148.515 4 55 980 9 45 45 9 225 200 24.7501 148.572 3 58 980 24.8073 148.752 STS 57 977 9 327
1993229N10159 1993 55 WP MM VERNON 1993-08-24 12:00:00 TS 25.1500 148.300 55 980 tokyo main 1347 1303 OOOO__________ jtwc_wp WP171993 25.2000 148.300 75 1 25.1000 148.200 4 55 980 9 50 50 2 250 200 0 25.1000 148.200 3 58 980 25.2000 148.500 STS 60 975 10 323
1993229N10159 1993 55 WP MM VERNON 1993-08-24 15:00:00 TS 25.5586 147.944 main 1288 1229 PPPP__________ WP171993 25.6648 147.945 77 1 25.4924 147.865 4 55 980 9 50 50 2 250 200 25.4772 147.872 3 58 980 25.6001 148.095 STS 60 975 11 320
1993229N10159 1993 55 WP MM VERNON 1993-08-24 18:00:00 TS 25.9750 147.525 55 980 tokyo main 1229 1179 OOOO__________ jtwc_wp WP171993 26.1000 147.500 80 1 25.9000 147.500 4 55 980 9 50 50 2 250 200 0 25.9000 147.500 3 58 980 26.0000 147.600 STS 60 975 11 316
1993229N10159 1993 55 WP MM VERNON 1993-08-24 21:00:00 TS 26.3696 147.070 main 1170 1105 PPPP__________ WP171993 26.4499 146.979 80 1 26.2588 147.147 4 55 980 9 50 50 2 260 200 26.3850 147.030 3 58 980 26.3847 147.122 STS 65 970 12 313
1993229N10159 1993 55 WP MM VERNON 1993-08-25 00:00:00 TS 26.8000 146.550 55 980 tokyo main 1105 1026 OOOO__________ jtwc_wp WP171993 26.8000 146.400 80 1 26.7000 146.700 4 55 980 9 50 50 1 270 200 0 26.9000 146.500 3 58 980 26.8000 146.600 T 70 965 14 314
1993229N10159 1993 55 WP MM VERNON 1993-08-25 03:00:00 TS 27.3160 145.983 60 975 tokyo main 1026 947 POPP__________ WP171993 27.2422 145.815 80 1 27.3000 146.100 4 60 975 9 60 60 2 300 200 0 27.4144 145.994 3 63 977 27.3073 146.023 T 72 962 15 314
1993229N10159 1993 55 WP MM VERNON 1993-08-25 06:00:00 TS 27.8250 145.350 65 970 tokyo main 942 874 OOOO__________ jtwc_wp WP171993 27.7000 145.200 80 1 27.9000 145.400 5 65 970 9 70 70 1 310 250 0 27.9000 145.400 4 68 975 27.8000 145.400 T 75 960 15 308
1993229N10159 1993 55 WP MM VERNON 1993-08-25 09:00:00 TS 28.2407 144.629 65 970 tokyo main 869 797 POPP__________ WP171993 28.1224 144.550 80 1 28.3000 144.600 5 65 970 9 70 70 1 310 250 0 28.3532 144.601 4 68 972 28.1872 144.764 T 75 960 15 300
1993229N10159 1993 55 WP MM VERNON 1993-08-25 12:00:00 TS 28.5750 143.900 70 965 tokyo main 797 752 OOOO__________ jtwc_wp WP171993 28.5000 143.900 80 1 28.6000 143.800 5 70 965 9 80 80 1 350 250 0 28.7000 143.800 4 68 970 28.5000 144.100 T 75 960 13 295
1993229N10159 1993 55 WP MM VERNON 1993-08-25 15:00:00 TS 28.8073 143.266 70 965 tokyo main 752 708 POPP__________ WP171993 28.8148 143.277 77 1 28.8000 143.200 5 70 965 9 80 80 1 350 250 0 28.8568 143.204 4 68 970 28.7576 143.384 T 70 962 11 293
1993229N10159 1993 55 WP MM VERNON 1993-08-25 18:00:00 TS 29.0250 142.700 70 965 tokyo main 708 657 OOOO__________ jtwc_wp WP171993 29.1000 142.700 75 1 29.0000 142.700 5 70 965 9 80 80 1 350 250 0 29.0000 142.700 4 68 970 29.0000 142.700 T 65 965 11 297
1993229N10159 1993 55 WP MM VERNON 1993-08-25 21:00:00 TS 29.3205 142.106 70 965 tokyo main 657 601 POPP__________ WP171993 29.3924 142.162 75 1 29.3000 142.000 5 70 965 9 80 80 1 350 250 0 29.3125 142.170 4 68 970 29.2773 142.090 T 65 965 11 305
1993229N10159 1993 55 WP MM VERNON 1993-08-26 00:00:00 TS 29.6750 141.625 70 965 tokyo main 601 561 OOOO__________ jtwc_wp WP171993 29.7000 141.700 75 1 29.7000 141.500 5 70 965 9 80 80 1 350 250 0 29.7000 141.700 4 68 970 29.6000 141.600 T 65 965 10 313
1993229N10159 1993 55 WP MM VERNON 1993-08-26 03:00:00 TS 30.0149 141.255 70 965 tokyo main 561 511 POPP__________ WP171993 30.0199 141.290 75 1 30.0000 141.200 5 70 965 9 80 80 1 350 250 0 30.0849 141.290 4 68 970 29.9547 141.240 T 65 965 9 325
1993229N10159 1993 55 WP MM VERNON 1993-08-26 06:00:00 TS 30.4500 141.000 65 965 tokyo main 501 455 OOOO__________ jtwc_wp WP171993 30.4000 141.000 75 1 30.5000 141.000 5 65 965 9 70 70 1 350 250 0 30.5000 141.000 4 68 970 30.4000 141.000 T 65 965 10 339
1993229N10159 1993 55 WP MM VERNON 1993-08-26 09:00:00 TS 30.9186 140.859 65 965 tokyo main 455 399 POPP__________ WP171993 30.8623 140.862 75 1 30.9000 140.900 5 65 965 9 70 70 1 350 250 0 30.9198 140.862 4 68 970 30.9924 140.812 T 62 967 10 349
1993229N10159 1993 55 WP MM VERNON 1993-08-26 12:00:00 TS 31.4500 140.775 65 970 tokyo main 388 331 OOOO__________ jtwc_wp WP171993 31.4000 140.800 75 1 31.4000 140.800 5 65 970 9 70 70 1 325 250 0 31.4000 140.800 4 68 970 31.6000 140.700 STS 60 970 11 352
1993229N10159 1993 55 WP MM VERNON 1993-08-26 15:00:00 TS 31.9938 140.674 65 970 tokyo main 331 275 POPP__________ WP171993 31.9700 140.685 75 1 32.0000 140.700 5 65 970 9 70 70 1 300 240 0 31.9700 140.685 4 68 972 32.0350 140.627 STS 60 970 11 352
1993229N10159 1993 55 WP MM VERNON 1993-08-26 18:00:00 TS 32.5750 140.600 65 970 tokyo main 264 200 OOOO__________ jtwc_wp WP171993 32.6000 140.600 75 1 32.6000 140.600 5 65 970 9 60 60 1 270 230 0 32.6000 140.600 4 68 975 32.5000 140.600 STS 60 970 12 356
1993229N10159 1993 55 WP MM VERNON 1993-08-26 21:00:00 TS 33.2056 140.578 65 970 tokyo main 200 128 POPP__________ WP171993 33.2700 140.563 72 1 33.2000 140.600 5 65 970 9 60 60 1 270 230 0 33.2125 140.570 4 68 975 33.1400 140.578 STS 60 970 14 0
1993229N10159 1993 55 WP MM VERNON 1993-08-27 00:00:00 TS 33.9250 140.600 65 970 tokyo main 128 48 OOOO__________ jtwc_wp WP171993 34.0000 140.600 70 1 33.9000 140.600 5 65 970 9 60 60 1 240 200 0 33.9000 140.600 4 68 975 33.9000 140.600 STS 60 970 16 2
1993229N10159 1993 55 WP MM VERNON 1993-08-27 03:00:00 TS 34.8137 140.650 65 970 tokyo main 52 11 POPP__________ WP171993 34.7849 140.698 70 1 35.0000 140.600 5 65 970 9 60 60 1 240 200 0 34.7349 140.648 4 68 975 34.7349 140.656 STS 60 970 17 6
1993229N10159 1993 55 WP MM VERNON 1993-08-27 06:00:00 TS 35.6000 140.825 65 970 tokyo main 11 0 OOOO__________ jtwc_wp WP171993 35.6000 140.900 70 1 35.6000 140.800 5 65 970 9 60 60 1 240 200 0 35.6000 140.800 4 68 975 35.6000 140.800 STS 60 970 16 14
1993229N10159 1993 55 WP MM VERNON 1993-08-27 09:00:00 TS 36.3531 141.109 60 975 tokyo main 44 34 POPP__________ WP171993 36.3925 141.205 67 1 36.3000 141.100 4 60 975 9 60 60 1 240 200 0 36.3275 141.098 4 63 977 36.3922 141.034 STS 60 970 16 19
1993229N10159 1993 55 WP MM VERNON 1993-08-27 12:00:00 TS 37.1500 141.500 60 975 tokyo main 44 44 OOOO__________ jtwc_wp WP171993 37.2000 141.600 65 1 37.1000 141.500 4 60 975 2 60 50 2 240 160 0 37.1000 141.500 3 58 980 37.2000 141.400 STS 60 970 18 22
1993229N10159 1993 55 WP MM VERNON 1993-08-27 15:00:00 TS 37.9872 141.917 60 975 tokyo main 48 44 POPP__________ WP171993 37.9519 141.988 62 0 38.0000 141.900 4 60 975 2 60 50 2 240 160 0 38.0021 141.901 3 58 980 37.9948 141.879 STS 60 970 20 22
1993229N10159 1993 55 WP MM VERNON 1993-08-27 18:00:00 TS 39.0267 142.447 60 975 tokyo main 48 44 OOOO__________ jtwc_wp WP171993 38.9000 142.500 60 0 39.1000 142.400 4 60 975 3 60 50 3 240 160 0 39.1000 142.400 3 58 980 39.0000 142.500 STS 60 970 26 22
1993229N10159 1993 55 WP MM VERNON 1993-08-27 21:00:00 TS 40.4004 143.177 60 975 tokyo main 118 53 POPP__________ WP171993 40.2677 143.224 57 0 40.5000 143.200 4 60 975 3 60 50 3 240 160 0 40.4405 143.069 3 53 982 40.3864 143.252 STS 57 972 31 21
1993229N10159 1993 55 WP MM VERNON 1993-08-28 00:00:00 TS 41.8769 143.915 55 980 tokyo main 50 22 OOOO__________ jtwc_wp WP171993 41.8000 144.100 55 0 41.9000 143.800 4 55 980 3 60 40 3 240 120 0 41.9000 143.800 3 48 985 42.0000 144.100 STS 55 975 31 20
1993229N10159 1993 55 WP MM VERNON 1993-08-28 02:00:00 TS 42.8075 144.385 55 980 tokyo main 22 0 POP___________ WP171993 42.7350 144.693 53 0 42.8000 144.200 4 55 980 3 60 40 3 240 120 1 42.8874 144.263 3 44 986 STS 30 20
1993229N10159 1993 55 WP MM VERNON 1993-08-28 03:00:00 TS 43.2913 144.630 50 980 tokyo main 0 0 POP___________ WP171993 43.1990 145.003 52 0 43.3000 144.400 4 50 980 9 3 240 120 0 43.3748 144.487 3 43 987 STS 30 21
1993229N10159 1993 55 WP MM VERNON 1993-08-28 06:00:00 MX 44.6727 145.345 986 tokyo main 55 55 OOO___________ jtwc_wp WP171993 44.6000 146.000 50 0 44.7000 145.100 6 986 0 0 0 44.7000 145.100 2 38 990 26 20
1993229N10159 1993 55 WP MM VERNON 1993-08-28 09:00:00 MX 45.7468 145.892 main 142 142 PPP___________ WP171993 46.0401 147.103 50 0 45.6879 145.600 6 987 0 0 45.6591 145.578 2 33 990 20 18
1993229N10159 1993 55 WP MM VERNON 1993-08-28 12:00:00 ET 46.6111 146.256 988 tokyo main 189 180 OOO___________ jtwc_wp WP171993 47.5000 148.300 50 0 46.5000 146.000 6 988 0 0 0 46.5000 146.000 9 29 990 18 14
1993229N10159 1993 55 WP MM VERNON 1993-08-28 15:00:00 ET 47.5227 146.528 main 180 160 _PP___________ WP171993 -1 47.5227 146.528 6 989 0 0 47.5227 146.528 9 29 990 20 15
1993229N10159 1993 55 WP MM VERNON 1993-08-28 18:00:00 ET 48.5000 147.000 990 tokyo main 168 168 _OO___________ -1 48.5000 147.000 6 990 0 0 0 48.5000 147.000 9 29 990 18 16
1993229N10159 1993 55 WP MM VERNON 1993-08-28 21:00:00 ET 49.2929 147.295 main 193 193 _PP___________ -1 49.2870 147.291 6 991 0 0 49.3047 147.304 9 26 991 15 12
1993229N10159 1993 55 WP MM VERNON 1993-08-29 00:00:00 ET 50.0000 147.500 992 tokyo main 235 235 _OO___________ -1 50.0000 147.500 6 992 0 0 0 50.0000 147.500 9 23 992 15 11
1993229N10159 1993 55 WP MM VERNON 1993-08-29 03:00:00 ET 50.7496 147.715 main 276 276 _P____________ -1 50.7496 147.715 6 993 0 0 9 15 12
1993229N10159 1993 55 WP MM VERNON 1993-08-29 06:00:00 ET 51.5000 148.000 994 tokyo main 311 311 _O____________ -1 51.5000 148.000 6 994 0 0 0 16 16
1993229N10159 1993 55 WP MM VERNON 1993-08-29 09:00:00 ET 52.2871 148.425 main 344 344 _P____________ -1 52.2871 148.425 6 994 0 0 16 22
1993229N10159 1993 55 WP MM VERNON 1993-08-29 12:00:00 ET 53.0000 149.000 994 tokyo main 379 379 _O____________ -1 53.0000 149.000 6 994 0 0 0 15 32
1993229N10159 1993 55 WP MM VERNON 1993-08-29 15:00:00 ET 53.5376 149.714 main 409 345 _P____________ -1 53.5376 149.714 6 994 0 0 13 42
1993229N10159 1993 55 WP MM VERNON 1993-08-29 18:00:00 ET 54.0000 150.500 994 tokyo main 345 289 _O____________ -1 54.0000 150.500 6 994 0 0 0 13 43
1993229N10159 1993 55 WP MM VERNON 1993-08-29 21:00:00 ET 54.4988 151.216 main 289 228 _P____________ -1 54.4988 151.216 6 995 0 0 13 41
1993229N10159 1993 55 WP MM VERNON 1993-08-30 00:00:00 ET 55.0000 152.000 996 tokyo main 228 171 _O____________ -1 55.0000 152.000 6 996 0 0 0 14 45
1993229N10159 1993 55 WP MM VERNON 1993-08-30 03:00:00 ET 55.5000 152.964 main 166 111 _P____________ -1 55.5000 152.964 6 996 0 0 15 49
1993229N10159 1993 55 WP MM VERNON 1993-08-30 06:00:00 ET 56.0000 154.000 996 tokyo main 105 62 _O____________ -1 56.0000 154.000 6 996 0 0 0 15 47
1993229N10159 1993 55 WP MM VERNON 1993-08-30 09:00:00 ET 56.5357 154.963 main 56 25 _P____________ -1 56.5357 154.963 6 996 0 0 15 48
1993229N10159 1993 55 WP MM VERNON 1993-08-30 12:00:00 ET 57.0000 156.000 996 tokyo main 25 0 _O____________ -1 57.0000 156.000 6 996 0 0 0 14 58
1993229N10159 1993 55 WP MM VERNON 1993-08-30 15:00:00 ET 57.3034 157.199 main 0 0 _P____________ -1 57.3034 157.199 6 995 0 0 14 70
1993229N10159 1993 55 WP MM VERNON 1993-08-30 18:00:00 ET 57.5000 158.500 994 tokyo main 0 _O____________ -1 57.5000 158.500 6 994 0 0 0 14 74

Digital Typhoon Data and Search

About IBTrACS Database

This database is a web-friendly format of International Best Track Archive for Climate Stewardship (IBTrACS), a global best track data archive curated by NOAA dating back to 1842.

Updated: 2021-12-01